createdAt,value
2018-02-07T00:00:14.041Z,85.28
2018-02-07T00:01:14.041Z,85.66
2018-02-07T00:02:14.791Z,85.76
2018-02-07T00:03:14.030Z,85.57
2018-02-07T00:04:14.045Z,84.91
2018-02-07T00:05:14.021Z,84.91
2018-02-07T00:06:14.022Z,84.91
2018-02-07T00:07:14.024Z,85.28
2018-02-07T00:08:14.006Z,85.66
2018-02-07T00:09:14.009Z,86.33
2018-02-07T00:10:13.995Z,86.23
2018-02-07T00:11:13.997Z,86.23
2018-02-07T00:12:13.990Z,86.14
2018-02-07T00:13:13.988Z,86.23
2018-02-07T00:14:13.986Z,86.42
2018-02-07T00:15:13.976Z,85.95
2018-02-07T00:16:13.982Z,86.04
2018-02-07T00:17:13.977Z,86.33
2018-02-07T00:18:14.024Z,86.61
2018-02-07T00:19:13.971Z,86.80
2018-02-07T00:20:13.982Z,86.80
2018-02-07T00:21:13.962Z,86.04
2018-02-07T00:22:13.966Z,86.80
2018-02-07T00:23:13.956Z,87.08
2018-02-07T00:24:13.948Z,86.90
2018-02-07T00:25:13.973Z,86.52
2018-02-07T00:26:13.951Z,86.61
2018-02-07T00:27:13.943Z,86.42
2018-02-07T00:28:13.942Z,87.18
2018-02-07T00:29:13.935Z,86.99
2018-02-07T00:30:13.951Z,87.08
2018-02-07T00:31:13.944Z,86.90
2018-02-07T00:32:13.916Z,87.08
2018-02-07T00:33:13.974Z,86.90
2018-02-07T00:34:13.915Z,86.99
2018-02-07T00:35:13.907Z,87.08
2018-02-07T00:36:13.959Z,86.80
2018-02-07T00:37:13.919Z,86.90
2018-02-07T00:38:13.897Z,86.42
2018-02-07T00:39:13.895Z,86.33
2018-02-07T00:40:13.898Z,87.55
2018-02-07T00:41:13.892Z,86.90
2018-02-07T00:42:13.937Z,86.80
2018-02-07T00:43:13.886Z,87.18
2018-02-07T00:44:14.021Z,87.65
2018-02-07T00:45:13.919Z,86.80
2018-02-07T00:46:13.980Z,87.08
2018-02-07T00:47:13.974Z,86.99
2018-02-07T00:48:13.887Z,87.08
2018-02-07T00:49:13.864Z,87.08
2018-02-07T00:50:13.860Z,87.08
2018-02-07T00:51:13.984Z,87.37
2018-02-07T00:52:13.855Z,86.90
2018-02-07T00:53:13.844Z,87.46
2018-02-07T00:54:13.857Z,87.37
2018-02-07T00:55:13.833Z,87.65
2018-02-07T00:56:13.829Z,87.65
2018-02-07T00:57:13.880Z,87.46
2018-02-07T00:58:14.291Z,87.37
2018-02-07T00:59:13.811Z,87.37
2018-02-07T01:00:13.829Z,86.71
2018-02-07T01:01:13.832Z,87.55
2018-02-07T01:02:13.830Z,87.46
2018-02-07T01:03:13.804Z,87.27
2018-02-07T01:04:13.800Z,86.90
2018-02-07T01:05:13.802Z,87.65
2018-02-07T01:06:13.801Z,86.71
2018-02-07T01:07:13.794Z,87.37
2018-02-07T01:08:13.785Z,87.55
2018-02-07T01:09:13.780Z,87.27
2018-02-07T01:10:13.777Z,87.93
2018-02-07T01:11:13.774Z,87.65
2018-02-07T01:12:13.771Z,87.84
2018-02-07T01:13:13.774Z,87.74
2018-02-07T01:14:13.791Z,87.74
2018-02-07T01:15:13.753Z,87.84
2018-02-07T01:16:13.758Z,88.31
2018-02-07T01:17:13.772Z,88.03
2018-02-07T01:18:13.772Z,88.22
2018-02-07T01:19:13.745Z,87.74
2018-02-07T01:20:13.754Z,87.84
2018-02-07T01:21:13.762Z,88.22
2018-02-07T01:22:13.733Z,87.55
2018-02-07T01:23:13.729Z,87.93
2018-02-07T01:24:13.725Z,88.31
2018-02-07T01:25:13.716Z,88.03
2018-02-07T01:26:13.720Z,87.65
2018-02-07T01:27:13.735Z,87.37
2018-02-07T01:28:13.710Z,87.27
2018-02-07T01:29:13.704Z,87.93
2018-02-07T01:30:13.696Z,87.51
2018-02-07T01:31:13.710Z,88.36
2018-02-07T01:32:13.692Z,88.17
2018-02-07T01:33:13.688Z,88.27
2018-02-07T01:34:13.695Z,88.27
2018-02-07T01:35:13.678Z,88.17
2018-02-07T01:36:13.685Z,88.17
2018-02-07T01:37:13.678Z,88.17
2018-02-07T01:38:13.676Z,88.93
2018-02-07T01:39:13.669Z,88.84
2018-02-07T01:40:13.695Z,88.65
2018-02-07T01:41:13.688Z,88.55
2018-02-07T01:42:13.668Z,88.74
2018-02-07T01:43:13.652Z,88.50
2018-02-07T01:44:13.650Z,88.22
2018-02-07T01:45:13.651Z,87.98
2018-02-07T01:46:13.641Z,88.41
2018-02-07T01:47:13.637Z,87.79
2018-02-07T01:48:13.632Z,88.08
2018-02-07T01:49:13.624Z,87.98
2018-02-07T01:50:13.628Z,87.61
2018-02-07T01:51:13.636Z,88.17
2018-02-07T01:52:13.625Z,87.98
2018-02-07T01:53:13.618Z,88.17
2018-02-07T01:54:13.613Z,88.08
2018-02-07T01:55:13.620Z,88.17
2018-02-07T01:56:13.695Z,88.27
2018-02-07T01:57:13.600Z,88.27
2018-02-07T01:58:13.598Z,88.27
2018-02-07T01:59:13.599Z,88.03
2018-02-07T02:00:13.610Z,88.36
2018-02-07T02:01:13.604Z,88.27
2018-02-07T02:02:13.584Z,88.31
2018-02-07T02:03:13.581Z,88.12
2018-02-07T02:04:13.558Z,87.79
2018-02-07T02:05:13.559Z,88.46
2018-02-07T02:06:14.298Z,88.17
2018-02-07T02:07:13.562Z,87.70
2018-02-07T02:08:13.548Z,87.70
2018-02-07T02:09:13.577Z,87.79
2018-02-07T02:10:13.557Z,87.42
2018-02-07T02:11:13.545Z,87.89
2018-02-07T02:12:13.549Z,87.42
2018-02-07T02:13:13.534Z,88.03
2018-02-07T02:14:13.533Z,87.79
2018-02-07T02:15:13.530Z,87.74
2018-02-07T02:16:13.536Z,87.70
2018-02-07T02:17:13.518Z,87.23
2018-02-07T02:18:13.521Z,87.79
2018-02-07T02:19:13.516Z,87.61
2018-02-07T02:20:13.508Z,87.70
2018-02-07T02:21:13.510Z,87.89
2018-02-07T02:22:13.502Z,88.27
2018-02-07T02:23:13.500Z,87.79
2018-02-07T02:24:13.495Z,87.70
2018-02-07T02:25:13.489Z,87.79
2018-02-07T02:26:13.508Z,88.36
2018-02-07T02:27:13.487Z,87.89
2018-02-07T02:28:13.482Z,88.17
2018-02-07T02:29:13.478Z,88.27
2018-02-07T02:30:13.472Z,88.17
2018-02-07T02:31:13.514Z,87.79
2018-02-07T02:32:13.464Z,88.36
2018-02-07T02:33:13.464Z,87.51
2018-02-07T02:34:13.456Z,87.51
2018-02-07T02:35:13.453Z,87.98
2018-02-07T02:36:13.449Z,87.23
2018-02-07T02:37:13.447Z,87.23
2018-02-07T02:38:13.457Z,87.51
2018-02-07T02:39:13.437Z,87.98
2018-02-07T02:40:13.433Z,87.23
2018-02-07T02:41:13.453Z,87.79
2018-02-07T02:42:13.431Z,88.03
2018-02-07T02:43:13.426Z,87.61
2018-02-07T02:44:13.421Z,87.98
2018-02-07T02:45:13.421Z,88.55
2018-02-07T02:46:13.416Z,88.08
2018-02-07T02:47:13.407Z,87.79
2018-02-07T02:48:13.398Z,87.84
2018-02-07T02:49:13.401Z,87.74
2018-02-07T02:50:13.396Z,87.93
2018-02-07T02:51:13.399Z,87.79
2018-02-07T02:52:13.388Z,87.89
2018-02-07T02:53:13.375Z,88.03
2018-02-07T02:54:13.376Z,87.93
2018-02-07T02:55:13.372Z,87.89
2018-02-07T02:56:13.399Z,87.93
2018-02-07T02:57:13.360Z,88.03
2018-02-07T02:58:13.358Z,88.03
2018-02-07T02:59:13.365Z,87.37
2018-02-07T03:00:13.347Z,87.18
2018-02-07T03:01:13.355Z,87.23
2018-02-07T03:02:13.351Z,87.89
2018-02-07T03:03:13.344Z,87.89
2018-02-07T03:04:13.340Z,87.84
2018-02-07T03:05:13.332Z,87.89
2018-02-07T03:06:13.339Z,88.17
2018-02-07T03:07:13.332Z,88.55
2018-02-07T03:08:13.335Z,88.46
2018-02-07T03:09:13.324Z,88.55
2018-02-07T03:10:13.318Z,88.46
2018-02-07T03:11:13.319Z,88.55
2018-02-07T03:12:13.319Z,88.55
2018-02-07T03:13:13.307Z,87.79
2018-02-07T03:14:13.307Z,87.51
2018-02-07T03:15:13.298Z,87.70
2018-02-07T03:16:13.294Z,87.89
2018-02-07T03:17:13.288Z,88.84
2018-02-07T03:18:13.297Z,88.65
2018-02-07T03:19:13.289Z,88.36
2018-02-07T03:20:13.281Z,87.89
2018-02-07T03:21:13.279Z,88.08
2018-02-07T03:22:13.265Z,87.70
2018-02-07T03:23:13.278Z,87.89
2018-02-07T03:24:13.262Z,87.89
2018-02-07T03:25:13.256Z,87.70
2018-02-07T03:26:13.256Z,87.79
2018-02-07T03:27:13.803Z,87.61
2018-02-07T03:28:13.262Z,87.98
2018-02-07T03:29:13.238Z,87.89
2018-02-07T03:30:13.242Z,88.46
2018-02-07T03:31:13.242Z,88.55
2018-02-07T03:32:13.248Z,88.65
2018-02-07T03:33:13.232Z,88.08
2018-02-07T03:34:13.232Z,88.55
2018-02-07T03:35:13.223Z,87.89
2018-02-07T03:36:13.214Z,88.65
2018-02-07T03:37:13.212Z,88.27
2018-02-07T03:38:13.212Z,88.08
2018-02-07T03:39:13.202Z,87.79
2018-02-07T03:40:13.193Z,88.46
2018-02-07T03:41:13.222Z,88.08
2018-02-07T03:42:13.192Z,87.89
2018-02-07T03:43:13.187Z,88.65
2018-02-07T03:44:13.184Z,88.08
2018-02-07T03:45:13.191Z,88.55
2018-02-07T03:46:13.180Z,88.74
2018-02-07T03:47:13.203Z,88.36
2018-02-07T03:48:13.172Z,88.27
2018-02-07T03:49:13.169Z,88.17
2018-02-07T03:50:13.165Z,88.36
2018-02-07T03:51:13.148Z,88.84
2018-02-07T03:52:13.153Z,88.65
2018-02-07T03:53:13.804Z,88.65
2018-02-07T03:54:13.148Z,88.55
2018-02-07T03:55:13.156Z,88.65
2018-02-07T03:56:13.137Z,88.08
2018-02-07T03:57:13.147Z,88.08
2018-02-07T03:58:13.117Z,88.17
2018-02-07T03:59:13.125Z,88.46
2018-02-07T04:00:13.127Z,88.36
2018-02-07T04:01:13.126Z,88.65
2018-02-07T04:02:13.120Z,88.17
2018-02-07T04:03:13.110Z,88.17
2018-02-07T04:04:13.105Z,88.55
2018-02-07T04:05:13.102Z,88.84
2018-02-07T04:06:13.095Z,88.27
2018-02-07T04:07:13.102Z,88.27
2018-02-07T04:08:13.090Z,88.65
2018-02-07T04:09:13.084Z,88.65
2018-02-07T04:10:13.082Z,88.55
2018-02-07T04:11:13.074Z,87.98
2018-02-07T04:12:13.073Z,88.46
2018-02-07T04:13:13.066Z,88.74
2018-02-07T04:14:13.169Z,88.27
2018-02-07T04:15:13.059Z,88.74
2018-02-07T04:16:13.056Z,88.84
2018-02-07T04:17:13.052Z,88.74
2018-02-07T04:18:13.048Z,88.65
2018-02-07T04:19:13.043Z,88.17
2018-02-07T04:20:13.045Z,89.31
2018-02-07T04:21:13.036Z,89.50
2018-02-07T04:22:13.029Z,88.84
2018-02-07T04:23:13.032Z,88.65
2018-02-07T04:24:13.025Z,88.65
2018-02-07T04:25:13.031Z,88.17
2018-02-07T04:26:13.010Z,87.79
2018-02-07T04:27:13.008Z,88.65
2018-02-07T04:28:13.005Z,88.84
2018-02-07T04:29:13.005Z,89.03
2018-02-07T04:30:12.990Z,88.46
2018-02-07T04:31:12.995Z,88.65
2018-02-07T04:32:12.990Z,88.55
2018-02-07T04:33:12.989Z,88.46
2018-02-07T04:34:12.991Z,88.46
2018-02-07T04:35:12.975Z,88.17
2018-02-07T04:36:12.971Z,88.17
2018-02-07T04:37:12.966Z,88.55
2018-02-07T04:38:12.966Z,88.36
2018-02-07T04:39:12.962Z,88.60
2018-02-07T04:40:12.950Z,88.60
2018-02-07T04:41:12.955Z,88.84
2018-02-07T04:42:12.946Z,88.60
2018-02-07T04:43:12.949Z,88.79
2018-02-07T04:44:12.940Z,88.60
2018-02-07T04:45:12.928Z,89.17
2018-02-07T04:46:12.944Z,89.17
2018-02-07T04:47:12.931Z,88.89
2018-02-07T04:48:12.933Z,88.70
2018-02-07T04:49:12.917Z,88.98
2018-02-07T04:50:12.912Z,89.07
2018-02-07T04:51:12.906Z,88.60
2018-02-07T04:52:12.903Z,88.32
2018-02-07T04:53:12.917Z,88.70
2018-02-07T04:54:12.896Z,89.26
2018-02-07T04:55:12.908Z,88.98
2018-02-07T04:56:12.890Z,88.98
2018-02-07T04:57:12.886Z,88.13
2018-02-07T04:58:12.880Z,88.55
2018-02-07T04:59:12.870Z,88.70
2018-02-07T05:00:12.875Z,88.60
2018-02-07T05:01:12.863Z,87.94
2018-02-07T05:02:12.869Z,88.23
2018-02-07T05:03:12.862Z,88.42
2018-02-07T05:04:12.852Z,88.79
2018-02-07T05:05:12.926Z,88.70
2018-02-07T05:06:12.843Z,88.36
2018-02-07T05:07:12.851Z,88.42
2018-02-07T05:08:12.824Z,88.55
2018-02-07T05:09:12.832Z,88.32
2018-02-07T05:10:12.820Z,88.36
2018-02-07T05:11:12.861Z,88.42
2018-02-07T05:12:12.828Z,88.46
2018-02-07T05:13:12.816Z,88.93
2018-02-07T05:14:12.814Z,88.55
2018-02-07T05:15:12.816Z,88.51
2018-02-07T05:16:12.810Z,88.42
2018-02-07T05:17:12.791Z,88.55
2018-02-07T05:18:12.789Z,88.60
2018-02-07T05:19:12.792Z,88.79
2018-02-07T05:20:12.783Z,88.23
2018-02-07T05:21:12.793Z,88.70
2018-02-07T05:22:12.777Z,88.51
2018-02-07T05:23:12.771Z,88.13
2018-02-07T05:24:13.323Z,88.60
2018-02-07T05:25:12.767Z,88.13
2018-02-07T05:26:13.315Z,88.42
2018-02-07T05:27:12.748Z,88.51
2018-02-07T05:28:12.748Z,88.60
2018-02-07T05:29:12.746Z,88.70
2018-02-07T05:30:12.746Z,89.07
2018-02-07T05:31:12.732Z,89.17
2018-02-07T05:32:12.735Z,88.79
2018-02-07T05:33:12.725Z,88.70
2018-02-07T05:34:12.722Z,88.70
2018-02-07T05:35:12.722Z,88.79
2018-02-07T05:36:12.716Z,88.89
2018-02-07T05:37:12.802Z,88.98
2018-02-07T05:38:13.054Z,88.70
2018-02-07T05:39:12.701Z,88.98
2018-02-07T05:40:12.704Z,88.60
2018-02-07T05:41:12.702Z,89.07
2018-02-07T05:42:12.699Z,88.60
2018-02-07T05:43:12.691Z,89.45
2018-02-07T05:44:12.687Z,88.98
2018-02-07T05:45:12.684Z,89.36
2018-02-07T05:46:12.666Z,89.26
2018-02-07T05:47:12.705Z,89.07
2018-02-07T05:48:12.666Z,88.98
2018-02-07T05:49:12.661Z,89.17
2018-02-07T05:50:12.659Z,89.54
2018-02-07T05:51:12.653Z,89.36
2018-02-07T05:52:12.652Z,90.30
2018-02-07T05:53:12.643Z,89.73
2018-02-07T05:54:12.636Z,89.17
2018-02-07T05:55:12.635Z,88.70
2018-02-07T05:56:12.628Z,89.17
2018-02-07T05:57:12.636Z,88.98
2018-02-07T05:58:12.706Z,89.83
2018-02-07T05:59:12.624Z,89.73
2018-02-07T06:00:12.599Z,89.64
2018-02-07T06:01:12.609Z,90.30
2018-02-07T06:02:12.603Z,89.83
2018-02-07T06:03:12.606Z,89.92
2018-02-07T06:04:12.589Z,89.36
2018-02-07T06:05:12.594Z,89.73
2018-02-07T06:06:12.592Z,89.83
2018-02-07T06:07:12.575Z,89.45
2018-02-07T06:08:12.575Z,89.92
2018-02-07T06:09:12.569Z,89.73
2018-02-07T06:10:12.559Z,89.54
2018-02-07T06:11:12.559Z,90.30
2018-02-07T06:12:12.557Z,89.92
2018-02-07T06:13:12.544Z,90.30
2018-02-07T06:14:12.566Z,88.89
2018-02-07T06:15:12.534Z,88.89
2018-02-07T06:16:12.537Z,88.79
2018-02-07T06:17:12.533Z,88.98
2018-02-07T06:18:12.529Z,89.36
2018-02-07T06:19:12.525Z,88.89
2018-02-07T06:20:12.522Z,89.92
2018-02-07T06:21:12.511Z,89.73
2018-02-07T06:22:12.535Z,89.45
2018-02-07T06:23:12.500Z,90.11
2018-02-07T06:24:12.504Z,89.73
2018-02-07T06:25:12.498Z,90.30
2018-02-07T06:26:12.490Z,89.54
2018-02-07T06:27:12.570Z,89.73
2018-02-07T06:28:12.480Z,90.02
2018-02-07T06:29:12.477Z,90.02
2018-02-07T06:30:12.479Z,89.92
2018-02-07T06:31:12.473Z,89.73
2018-02-07T06:32:12.481Z,90.02
2018-02-07T06:33:12.457Z,90.49
2018-02-07T06:34:12.456Z,91.25
2018-02-07T06:35:12.448Z,90.30
2018-02-07T06:36:12.445Z,90.68
2018-02-07T06:37:12.460Z,90.02
2018-02-07T06:38:12.437Z,90.02
2018-02-07T06:39:12.442Z,90.02
2018-02-07T06:40:12.500Z,90.30
2018-02-07T06:41:12.420Z,90.21
2018-02-07T06:42:12.422Z,90.49
2018-02-07T06:43:12.399Z,90.59
2018-02-07T06:44:12.401Z,89.92
2018-02-07T06:45:12.400Z,90.49
2018-02-07T06:46:12.405Z,90.87
2018-02-07T06:47:12.398Z,90.68
2018-02-07T06:48:12.396Z,91.15
2018-02-07T06:49:12.387Z,90.77
2018-02-07T06:50:12.388Z,90.96
2018-02-07T06:51:12.541Z,90.92
2018-02-07T06:52:13.325Z,90.21
2018-02-07T06:53:12.361Z,91.06
2018-02-07T06:54:12.359Z,90.45
2018-02-07T06:55:12.363Z,90.54
2018-02-07T06:56:12.354Z,90.73
2018-02-07T06:57:12.358Z,91.11
2018-02-07T06:58:12.349Z,90.92
2018-02-07T06:59:12.327Z,90.92
2018-02-07T07:00:12.326Z,90.54
2018-02-07T07:01:12.349Z,90.77
2018-02-07T07:02:12.320Z,90.96
2018-02-07T07:03:12.321Z,91.15
2018-02-07T07:04:12.308Z,90.49
2018-02-07T07:05:12.308Z,90.49
2018-02-07T07:06:12.310Z,90.49
2018-02-07T07:07:12.294Z,90.49
2018-02-07T07:08:12.304Z,90.30
2018-02-07T07:09:12.288Z,90.40
2018-02-07T07:10:12.296Z,90.11
2018-02-07T07:11:12.280Z,89.73
2018-02-07T07:12:12.297Z,89.73
2018-02-07T07:13:12.286Z,89.92
2018-02-07T07:14:12.824Z,89.92
2018-02-07T07:15:12.273Z,90.49
2018-02-07T07:16:12.257Z,90.68
2018-02-07T07:17:12.262Z,91.15
2018-02-07T07:18:12.241Z,91.15
2018-02-07T07:19:12.243Z,90.59
2018-02-07T07:20:12.244Z,90.49
2018-02-07T07:21:12.234Z,90.40
2018-02-07T07:22:12.239Z,90.30
2018-02-07T07:23:12.230Z,90.49
2018-02-07T07:24:12.226Z,89.83
2018-02-07T07:25:12.213Z,89.92
2018-02-07T07:26:12.212Z,90.21
2018-02-07T07:27:12.261Z,89.73
2018-02-07T07:28:12.199Z,90.30
2018-02-07T07:29:12.186Z,89.92
2018-02-07T07:30:12.209Z,90.02
2018-02-07T07:31:12.186Z,90.02
2018-02-07T07:32:12.204Z,90.02
2018-02-07T07:33:12.207Z,89.83
2018-02-07T07:34:12.170Z,89.73
2018-02-07T07:35:12.176Z,88.98
2018-02-07T07:36:12.156Z,88.98
2018-02-07T07:37:12.224Z,89.26
2018-02-07T07:38:12.156Z,89.17
2018-02-07T07:39:12.157Z,89.36
2018-02-07T07:40:12.151Z,89.36
2018-02-07T07:41:12.139Z,89.17
2018-02-07T07:42:12.157Z,89.17
2018-02-07T07:43:12.130Z,88.89
2018-02-07T07:44:12.151Z,89.92
2018-02-07T07:45:12.112Z,88.89
2018-02-07T07:46:12.106Z,88.98
2018-02-07T07:47:12.111Z,88.98
2018-02-07T07:48:12.112Z,89.17
2018-02-07T07:49:12.103Z,89.73
2018-02-07T07:50:12.144Z,88.89
2018-02-07T07:51:12.107Z,88.70
2018-02-07T07:52:12.094Z,89.26
2018-02-07T07:53:12.080Z,89.45
2018-02-07T07:54:12.094Z,89.36
2018-02-07T07:55:12.828Z,88.32
2018-02-07T07:56:12.080Z,88.60
2018-02-07T07:57:12.074Z,88.32
2018-02-07T07:58:12.124Z,88.04
2018-02-07T07:59:12.085Z,88.51
2018-02-07T08:00:12.047Z,88.42
2018-02-07T08:01:12.036Z,88.42
2018-02-07T08:02:12.043Z,88.13
2018-02-07T08:03:12.058Z,88.32
2018-02-07T08:04:12.049Z,88.13
2018-02-07T08:05:12.024Z,88.42
2018-02-07T08:06:12.022Z,88.04
2018-02-07T08:07:12.926Z,87.75
2018-02-07T08:08:12.049Z,87.47
2018-02-07T08:09:12.018Z,87.37
2018-02-07T08:10:12.003Z,86.94
2018-02-07T08:11:12.827Z,86.24
2018-02-07T08:12:11.988Z,86.15
2018-02-07T08:13:11.988Z,86.52
2018-02-07T08:14:11.986Z,86.43
2018-02-07T08:15:11.981Z,86.90
2018-02-07T08:16:11.973Z,86.80
2018-02-07T08:17:11.977Z,86.80
2018-02-07T08:18:11.974Z,86.76
2018-02-07T08:19:11.964Z,85.96
2018-02-07T08:20:11.959Z,85.96
2018-02-07T08:21:11.952Z,86.00
2018-02-07T08:22:11.951Z,85.43
2018-02-07T08:23:12.000Z,85.62
2018-02-07T08:24:11.935Z,85.62
2018-02-07T08:25:11.935Z,84.86
2018-02-07T08:26:11.941Z,84.39
2018-02-07T08:27:11.985Z,83.45
2018-02-07T08:28:11.925Z,83.83
2018-02-07T08:29:11.924Z,83.64
2018-02-07T08:30:11.908Z,83.64
2018-02-07T08:31:11.907Z,83.36
2018-02-07T08:32:11.910Z,83.45
2018-02-07T08:33:11.904Z,83.45
2018-02-07T08:34:11.898Z,83.07
2018-02-07T08:35:11.893Z,83.36
2018-02-07T08:36:11.914Z,83.36
2018-02-07T08:37:11.887Z,83.73
2018-02-07T08:38:11.885Z,84.11
2018-02-07T08:39:11.886Z,84.30
2018-02-07T08:40:11.876Z,84.49
2018-02-07T08:41:12.825Z,85.05
2018-02-07T08:42:11.867Z,84.58
2018-02-07T08:43:11.867Z,85.24
2018-02-07T08:44:12.038Z,85.24
2018-02-07T08:45:11.902Z,84.68
2018-02-07T08:46:11.857Z,84.20
2018-02-07T08:47:11.898Z,82.07
2018-02-07T08:48:11.878Z,80.84
2018-02-07T08:49:11.836Z,80.04
2018-02-07T08:50:11.844Z,77.42
2018-02-07T08:51:11.834Z,75.72
2018-02-07T08:52:11.827Z,74.40
2018-02-07T08:53:11.818Z,73.83
2018-02-07T08:54:11.820Z,72.19
2018-02-07T08:55:11.829Z,69.29
2018-02-07T08:56:11.812Z,66.29
2018-02-07T08:57:11.809Z,62.91
2018-02-07T08:58:12.328Z,61.96
2018-02-07T08:59:11.816Z,59.88
2018-02-07T09:00:11.791Z,59.66
2018-02-07T09:01:11.822Z,59.94
2018-02-07T09:02:11.797Z,59.66
2018-02-07T09:03:12.343Z,60.25
2018-02-07T09:04:11.799Z,60.44
2018-02-07T09:05:11.798Z,60.44
2018-02-07T09:06:11.790Z,59.68
2018-02-07T09:07:11.798Z,59.40
2018-02-07T09:08:11.789Z,58.83
2018-02-07T09:09:11.774Z,59.24
2018-02-07T09:10:11.784Z,58.10
2018-02-07T09:11:11.841Z,57.24
2018-02-07T09:12:11.786Z,56.87
2018-02-07T09:13:11.783Z,57.21
2018-02-07T09:14:12.332Z,58.07
2018-02-07T09:15:11.809Z,59.46
2018-02-07T09:16:11.800Z,60.89
2018-02-07T09:17:11.776Z,61.55
2018-02-07T09:18:11.795Z,60.73
2018-02-07T09:19:11.783Z,59.88
2018-02-07T09:20:11.791Z,58.00
2018-02-07T09:21:11.853Z,57.75
2018-02-07T09:22:11.793Z,56.42
2018-02-07T09:23:11.787Z,55.21
2018-02-07T09:24:11.815Z,53.76
2018-02-07T09:25:11.790Z,53.38
2018-02-07T09:26:11.933Z,54.39
2018-02-07T09:27:11.817Z,55.35
2018-02-07T09:28:11.842Z,55.37
2018-02-07T09:29:11.819Z,54.99
2018-02-07T09:30:11.797Z,55.37
2018-02-07T09:31:11.850Z,54.05
2018-02-07T09:32:11.808Z,54.61
2018-02-07T09:33:11.794Z,54.71
2018-02-07T09:34:11.805Z,54.24
2018-02-07T09:35:11.803Z,53.95
2018-02-07T09:36:11.802Z,53.66
2018-02-07T09:37:11.802Z,53.54
2018-02-07T09:38:11.814Z,54.66
2018-02-07T09:39:11.809Z,55.91
2018-02-07T09:40:11.806Z,55.18
2018-02-07T09:41:11.823Z,55.44
2018-02-07T09:42:11.934Z,55.28
2018-02-07T09:43:11.825Z,54.33
2018-02-07T09:44:12.348Z,53.57
2018-02-07T09:45:11.831Z,53.28
2018-02-07T09:46:11.837Z,52.33
2018-02-07T09:47:11.839Z,52.08
2018-02-07T09:48:11.827Z,51.25
2018-02-07T09:49:11.848Z,51.22
2018-02-07T09:50:11.853Z,50.74
2018-02-07T09:51:11.836Z,50.77
2018-02-07T09:52:11.850Z,50.74
2018-02-07T09:53:11.871Z,50.27
2018-02-07T09:54:11.857Z,51.31
2018-02-07T09:55:11.851Z,50.74
2018-02-07T09:56:11.887Z,50.93
2018-02-07T09:57:11.865Z,51.31
2018-02-07T09:58:11.909Z,51.29
2018-02-07T09:59:11.863Z,52.33
2018-02-07T10:00:11.893Z,51.98
2018-02-07T10:01:11.877Z,51.34
2018-02-07T10:02:11.880Z,50.10
2018-02-07T10:03:12.327Z,49.63
2018-02-07T10:04:11.886Z,48.99
2018-02-07T10:05:11.895Z,48.42
2018-02-07T10:06:11.895Z,47.02
2018-02-07T10:07:11.896Z,46.63
2018-02-07T10:08:12.851Z,47.23
2018-02-07T10:09:11.908Z,49.18
2018-02-07T10:10:11.912Z,52.83
2018-02-07T10:11:11.944Z,57.16
2018-02-07T10:12:11.912Z,59.41
2018-02-07T10:13:11.921Z,61.68
2018-02-07T10:14:11.914Z,62.69
2018-02-07T10:15:11.924Z,63.92
2018-02-07T10:16:11.938Z,65.15
2018-02-07T10:17:11.930Z,65.81
2018-02-07T10:18:11.926Z,66.19
2018-02-07T10:19:12.380Z,67.24
2018-02-07T10:20:11.950Z,67.43
2018-02-07T10:21:11.934Z,67.80
2018-02-07T10:22:11.934Z,67.71
2018-02-07T10:23:11.941Z,67.43
2018-02-07T10:24:11.936Z,67.61
2018-02-07T10:25:11.935Z,68.18
2018-02-07T10:26:12.032Z,67.52
2018-02-07T10:27:11.940Z,66.89
2018-02-07T10:28:11.942Z,64.74
2018-02-07T10:29:11.988Z,62.02
2018-02-07T10:30:11.975Z,60.98
2018-02-07T10:31:11.939Z,61.05
2018-02-07T10:32:11.950Z,61.80
2018-02-07T10:33:11.958Z,60.63
2018-02-07T10:34:11.958Z,59.21
2018-02-07T10:35:11.947Z,58.26
2018-02-07T10:36:11.955Z,56.87
2018-02-07T10:37:11.960Z,55.91
2018-02-07T10:38:11.946Z,55.06
2018-02-07T10:39:12.036Z,54.49
2018-02-07T10:40:12.015Z,54.46
2018-02-07T10:41:11.954Z,55.60
2018-02-07T10:42:11.977Z,56.62
2018-02-07T10:43:11.958Z,57.88
2018-02-07T10:44:11.968Z,57.50
2018-02-07T10:45:11.964Z,56.68
2018-02-07T10:46:11.979Z,56.04
2018-02-07T10:47:11.988Z,54.68
2018-02-07T10:48:11.970Z,53.76
2018-02-07T10:49:11.975Z,52.62
2018-02-07T10:50:11.983Z,52.14
2018-02-07T10:51:11.988Z,52.43
2018-02-07T10:52:12.000Z,52.55
2018-02-07T10:53:11.988Z,51.22
2018-02-07T10:54:11.979Z,50.77
2018-02-07T10:55:11.998Z,50.37
2018-02-07T10:56:11.996Z,50.48
2018-02-07T10:57:12.037Z,50.15
2018-02-07T10:58:12.014Z,50.46
2018-02-07T10:59:12.003Z,50.29
2018-02-07T11:00:12.004Z,49.54
2018-02-07T11:01:12.015Z,48.77
2018-02-07T11:02:12.001Z,48.23
2018-02-07T11:03:12.027Z,47.94
2018-02-07T11:04:12.023Z,47.18
2018-02-07T11:05:12.027Z,48.01
2018-02-07T11:06:12.035Z,48.68
2018-02-07T11:07:12.040Z,48.03
2018-02-07T11:08:12.033Z,47.82
2018-02-07T11:09:12.046Z,49.13
2018-02-07T11:10:12.868Z,50.20
2018-02-07T11:11:12.056Z,49.82
2018-02-07T11:12:12.073Z,48.96
2018-02-07T11:13:12.117Z,48.61
2018-02-07T11:14:12.050Z,47.56
2018-02-07T11:15:12.056Z,48.03
2018-02-07T11:16:12.093Z,47.66
2018-02-07T11:17:12.096Z,47.37
2018-02-07T11:18:12.079Z,47.47
2018-02-07T11:19:12.091Z,47.44
2018-02-07T11:20:12.083Z,47.82
2018-02-07T11:21:12.092Z,47.99
2018-02-07T11:22:12.112Z,49.13
2018-02-07T11:23:12.096Z,49.79
2018-02-07T11:24:12.111Z,49.98
2018-02-07T11:25:12.106Z,50.18
2018-02-07T11:26:12.162Z,49.63
2018-02-07T11:27:12.116Z,48.77
2018-02-07T11:28:12.124Z,49.22
2018-02-07T11:29:12.142Z,50.27
2018-02-07T11:30:12.139Z,49.73
2018-02-07T11:31:12.132Z,48.80
2018-02-07T11:32:12.145Z,47.49
2018-02-07T11:33:12.143Z,46.61
2018-02-07T11:34:12.155Z,46.68
2018-02-07T11:35:12.165Z,47.44
2018-02-07T11:36:12.261Z,48.27
2018-02-07T11:37:12.178Z,49.01
2018-02-07T11:38:12.172Z,50.08
2018-02-07T11:39:12.176Z,49.73
2018-02-07T11:40:12.182Z,49.46
2018-02-07T11:41:12.196Z,47.85
2018-02-07T11:42:12.196Z,46.89
2018-02-07T11:43:12.200Z,47.34
2018-02-07T11:44:12.212Z,47.54
2018-02-07T11:45:12.200Z,47.16
2018-02-07T11:46:12.206Z,47.44
2018-02-07T11:47:12.216Z,49.04
2018-02-07T11:48:12.238Z,49.32
2018-02-07T11:49:12.225Z,49.27
2018-02-07T11:50:12.222Z,48.87
2018-02-07T11:51:12.890Z,48.23
2018-02-07T11:52:12.232Z,48.13
2018-02-07T11:53:12.238Z,47.78
2018-02-07T11:54:12.253Z,46.83
2018-02-07T11:55:12.290Z,45.95
2018-02-07T11:56:12.280Z,45.68
2018-02-07T11:57:12.261Z,45.47
2018-02-07T11:58:12.281Z,46.70
2018-02-07T11:59:12.314Z,46.80
2018-02-07T12:00:12.277Z,46.88
2018-02-07T12:01:12.294Z,47.18
2018-02-07T12:02:12.290Z,47.44
2018-02-07T12:03:12.564Z,48.11
2018-02-07T12:04:12.905Z,48.58
2018-02-07T12:05:12.301Z,48.66
2018-02-07T12:06:12.310Z,50.18
2018-02-07T12:07:12.313Z,49.73
2018-02-07T12:08:12.312Z,49.25
2018-02-07T12:09:12.361Z,49.35
2018-02-07T12:10:12.897Z,48.99
2018-02-07T12:11:12.387Z,48.23
2018-02-07T12:12:12.367Z,48.32
2018-02-07T12:13:12.429Z,48.21
2018-02-07T12:14:12.344Z,48.21
2018-02-07T12:15:12.352Z,48.71
2018-02-07T12:16:12.406Z,47.82
2018-02-07T12:17:12.385Z,49.01
2018-02-07T12:18:13.309Z,49.96
2018-02-07T12:19:12.444Z,51.67
2018-02-07T12:20:12.375Z,51.57
2018-02-07T12:21:12.451Z,52.43
2018-02-07T12:22:12.444Z,53.83
2018-02-07T12:23:12.438Z,55.22
2018-02-07T12:24:12.433Z,56.52
2018-02-07T12:25:12.400Z,57.66
2018-02-07T12:26:12.480Z,58.58
2018-02-07T12:27:12.552Z,60.47
2018-02-07T12:28:12.424Z,61.90
2018-02-07T12:29:12.410Z,61.99
2018-02-07T12:30:12.469Z,62.56
2018-02-07T12:31:12.432Z,63.23
2018-02-07T12:32:12.453Z,63.42
2018-02-07T12:33:12.417Z,63.29
2018-02-07T12:34:12.435Z,63.48
2018-02-07T12:35:12.509Z,64.04
2018-02-07T12:36:12.435Z,64.04
2018-02-07T12:37:12.432Z,64.04
2018-02-07T12:38:12.433Z,63.95
2018-02-07T12:39:12.451Z,64.81
2018-02-07T12:40:12.473Z,64.90
2018-02-07T12:41:12.440Z,65.09
2018-02-07T12:42:12.437Z,65.94
2018-02-07T12:43:12.446Z,66.13
2018-02-07T12:44:12.437Z,66.74
2018-02-07T12:45:12.522Z,65.75
2018-02-07T12:46:12.471Z,64.71
2018-02-07T12:47:12.471Z,64.71
2018-02-07T12:48:12.482Z,65.09
2018-02-07T12:49:12.444Z,66.03
2018-02-07T12:50:12.450Z,65.56
2018-02-07T12:51:12.480Z,66.13
2018-02-07T12:52:12.487Z,65.28